Terminal Aerodrome Forecast
Issued by NWS Sioux Falls, SD

Home | Current Version | Previous Version | Graphics & Text | Print | Product List | Glossary On
Versions: 1 2 3 4 5 6 7 8 9 10 11 12 13 14 15 16 17 18 19 20 21
000
FTUS43 KFSD 011138
TAFFSD
TAF
KFSD 011138Z 0112/0212 01020G30KT 3/4SM -SN BR OVC010
      TEMPO 0112/0115 1 1/2SM -SN
     FM011500 36018G28KT 3SM -SN OVC015
     FM011800 36018G25KT P6SM OVC025
     FM012100 35015G22KT P6SM SCT030 BKN080
     FM020000 34012KT P6SM SCT050
     FM020500 VRB03KT P6SM SKC=

USA.gov is the U.S. government's official web portal to all federal, state and local government web resources and services.